Time;durP1;ratioP1;P1;durP2;ratioP2;P2;SDS_P1;SDS_P2;PMS_P1;PMS_P2;Temp;Humidity;BMP_temperature;BMP_pressure;BME280_temperature;BME280_humidity;BME280_pressure;Samples;Min_cycle;Max_cycle;Signal;HPM_P1;HPM_P2
2023/04/22 00:00:44;;;;;;;9.07;1.80;;;12.20;99.90;;;;;;5015710;28;20244;-92
2023/04/22 00:03:16;;;;;;;6.77;1.60;;;12.10;99.90;;;;;;5016285;28;20205;-91
2023/04/22 00:05:47;;;;;;;3.10;1.20;;;12.00;99.90;;;;;;5016562;28;20205;-92
2023/04/22 00:08:21;;;;;;;4.17;1.63;;;11.90;99.90;;;;;;5015130;28;20273;-90
2023/04/22 00:10:52;;;;;;;6.90;2.03;;;11.90;99.90;;;;;;5016247;28;20279;-92
2023/04/22 00:13:23;;;;;;;13.87;1.80;;;12.00;99.90;;;;;;5014879;28;20229;-91
2023/04/22 00:15:55;;;;;;;6.57;1.90;;;11.90;99.90;;;;;;5016711;28;20230;-95
2023/04/22 00:18:26;;;;;;;9.40;1.90;;;11.70;99.90;;;;;;5028425;28;20224;-95
2023/04/22 00:20:58;;;;;;;7.37;1.60;;;11.80;99.90;;;;;;5038576;28;20205;-91
2023/04/22 00:23:32;;;;;;;8.27;2.40;;;11.60;99.90;;;;;;5035903;28;20202;-94
2023/04/22 00:26:04;;;;;;;12.70;2.17;;;11.70;99.90;;;;;;5016830;28;20703;-93
2023/04/22 00:28:37;;;;;;;10.83;2.37;;;11.80;99.90;;;;;;5014051;28;20210;-96
2023/04/22 00:31:15;;;;;;;7.23;1.70;;;12.20;99.90;;;;;;5020226;28;20182;-96
2023/04/22 00:33:48;;;;;;;5.37;1.67;;;12.50;99.90;;;;;;5024730;28;20201;-89
2023/04/22 00:36:20;;;;;;;6.40;2.07;;;12.60;99.90;;;;;;5010804;28;20264;-88
2023/04/22 00:38:53;;;;;;;9.73;2.33;;;12.60;99.90;;;;;;5014138;28;20608;-91
2023/04/22 00:41:24;;;;;;;8.73;1.97;;;12.60;99.90;;;;;;5014550;28;20654;-91
2023/04/22 00:43:56;;;;;;;7.83;2.00;;;12.50;99.90;;;;;;5018174;28;20201;-91
2023/04/22 00:46:28;;;;;;;8.53;2.07;;;12.10;99.90;;;;;;5032297;28;20251;-91
2023/04/22 00:48:59;;;;;;;8.10;2.53;;;12.00;99.90;;;;;;5021022;28;20201;-90
2023/04/22 00:51:31;;;;;;;12.43;2.83;;;12.00;99.90;;;;;;5007550;28;20265;-90
2023/04/22 00:54:05;;;;;;;5.50;2.00;;;12.10;99.90;;;;;;5010334;28;20237;-94
2023/04/22 00:56:38;;;;;;;8.33;2.43;;;12.00;99.90;;;;;;5013942;28;20228;-91
2023/04/22 00:59:11;;;;;;;7.40;2.23;;;12.10;99.90;;;;;;5013538;28;20205;-90
2023/04/22 01:01:43;;;;;;;8.30;1.90;;;12.30;99.90;;;;;;5016784;28;20268;-93
2023/04/22 01:04:14;;;;;;;6.90;2.50;;;12.40;99.90;;;;;;5015112;28;20210;-91
2023/04/22 01:06:46;;;;;;;6.67;2.07;;;12.30;99.90;;;;;;5014646;28;20611;-90
2023/04/22 01:09:21;;;;;;;10.10;2.40;;;12.20;99.90;;;;;;5013353;28;20446;-91
2023/04/22 01:11:53;;;;;;;8.40;2.20;;;12.30;99.90;;;;;;5013947;28;20212;-91
2023/04/22 01:14:26;;;;;;;7.30;2.20;;;12.20;99.90;;;;;;5014030;28;20209;-92
2023/04/22 01:16:58;;;;;;;7.50;2.17;;;12.20;99.90;;;;;;5014266;28;20755;-91
2023/04/22 01:19:31;;;;;;;9.40;2.40;;;12.10;99.90;;;;;;4996850;28;20242;-93
2023/04/22 01:22:04;;;;;;;8.23;2.63;;;11.90;99.90;;;;;;4997331;28;20202;-91
2023/04/22 01:24:37;;;;;;;10.53;2.73;;;11.60;99.90;;;;;;5021566;28;20201;-92
2023/04/22 01:27:09;;;;;;;10.80;2.33;;;11.50;99.90;;;;;;5020041;28;20201;-91
2023/04/22 01:29:40;;;;;;;9.90;2.07;;;11.50;99.90;;;;;;5012509;28;20261;-93
2023/04/22 01:32:11;;;;;;;11.27;2.37;;;11.40;99.90;;;;;;5014323;28;20289;-90
2023/04/22 01:34:43;;;;;;;11.90;2.30;;;11.40;99.90;;;;;;5012938;28;20265;-93
2023/04/22 01:37:14;;;;;;;9.00;2.87;;;11.40;99.90;;;;;;5008425;28;20288;-88
2023/04/22 01:39:48;;;;;;;8.30;2.63;;;11.30;99.90;;;;;;4996711;28;20789;-90
2023/04/22 01:42:20;;;;;;;13.57;2.50;;;11.30;99.90;;;;;;4663546;28;10000120;-92
2023/04/22 01:44:51;;;;;;;11.40;3.13;;;11.30;99.90;;;;;;5003919;28;20594;-91
2023/04/22 01:47:22;;;;;;;9.63;3.50;;;11.40;99.90;;;;;;5010805;28;20241;-89
2023/04/22 01:49:53;;;;;;;10.97;2.47;;;11.20;99.90;;;;;;5021160;28;20235;-91
2023/04/22 01:52:25;;;;;;;12.57;2.77;;;11.20;99.90;;;;;;5027804;28;20300;-92
2023/04/22 01:54:58;;;;;;;10.30;2.23;;;11.20;99.90;;;;;;5024580;28;20206;-91
2023/04/22 01:57:30;;;;;;;14.13;2.70;;;11.10;99.90;;;;;;4999985;28;20273;-91
2023/04/22 02:00:01;;;;;;;13.13;2.10;;;11.00;99.90;;;;;;5022380;28;20741;-90
2023/04/22 02:02:33;;;;;;;8.77;2.47;;;11.00;99.90;;;;;;5013997;28;20209;-93
2023/04/22 02:05:05;;;;;;;10.47;2.20;;;10.90;99.90;;;;;;5017660;28;20201;-91
2023/04/22 02:07:37;;;;;;;13.20;2.47;;;10.90;99.90;;;;;;4920284;28;2691358;-91
2023/04/22 02:10:12;;;;;;;12.60;2.87;;;11.00;99.90;;;;;;5023298;28;20202;-91
2023/04/22 02:12:44;;;;;;;11.47;2.83;;;11.10;99.90;;;;;;5020315;28;20298;-91
2023/04/22 02:15:16;;;;;;;10.07;2.83;;;11.00;99.90;;;;;;5022017;28;20240;-89
2023/04/22 02:17:48;;;;;;;12.07;2.53;;;11.00;99.90;;;;;;5020233;28;20303;-91
2023/04/22 02:20:19;;;;;;;13.27;2.80;;;10.90;99.90;;;;;;5024758;28;20212;-91
2023/04/22 02:22:51;;;;;;;12.67;2.57;;;10.90;99.90;;;;;;5022916;28;20210;-89
2023/04/22 02:25:25;;;;;;;10.73;2.60;;;11.00;99.90;;;;;;5032185;28;20212;-90
2023/04/22 02:27:56;;;;;;;11.43;2.50;;;11.10;99.90;;;;;;5043981;28;20197;-92
2023/04/22 02:30:28;;;;;;;10.47;2.33;;;10.90;99.90;;;;;;5017086;28;20497;-91
2023/04/22 02:33:00;;;;;;;8.80;2.47;;;10.80;99.90;;;;;;5004676;28;20221;-89
2023/04/22 02:35:31;;;;;;;15.13;2.93;;;10.80;99.90;;;;;;5000730;28;20234;-90
2023/04/22 02:38:02;;;;;;;9.60;2.63;;;10.80;99.90;;;;;;5012959;28;20241;-91
2023/04/22 02:40:36;;;;;;;12.33;2.90;;;10.80;99.90;;;;;;5012041;28;20271;-91
2023/04/22 02:43:07;;;;;;;14.37;2.97;;;10.80;99.90;;;;;;5003284;28;20218;-87
2023/04/22 02:45:39;;;;;;;13.63;2.53;;;10.80;99.90;;;;;;5013207;28;20202;-88
2023/04/22 02:48:10;;;;;;;8.37;2.67;;;10.80;99.90;;;;;;5015825;28;20229;-92
2023/04/22 02:50:41;;;;;;;8.37;2.70;;;10.70;99.90;;;;;;5004243;28;20228;-90
2023/04/22 02:53:13;;;;;;;10.37;2.57;;;10.70;99.90;;;;;;5035674;28;20210;-90
2023/04/22 02:55:47;;;;;;;11.70;2.93;;;10.60;99.90;;;;;;5023319;28;20201;-90
2023/04/22 02:58:18;;;;;;;11.33;2.70;;;10.50;99.90;;;;;;5019272;28;20283;-90
2023/04/22 03:00:50;;;;;;;12.07;2.80;;;10.60;99.90;;;;;;5004502;28;20209;-90
2023/04/22 03:03:21;;;;;;;11.73;3.03;;;10.50;99.90;;;;;;5022817;28;20580;-92
2023/04/22 03:05:53;;;;;;;8.87;2.67;;;10.40;99.90;;;;;;5017372;28;20209;-91
2023/04/22 03:08:24;;;;;;;14.33;2.67;;;10.40;99.90;;;;;;5014795;28;20213;-92
2023/04/22 03:10:57;;;;;;;9.97;3.00;;;10.40;99.90;;;;;;5021246;28;20214;-91
2023/04/22 03:13:28;;;;;;;16.93;3.40;;;10.30;99.90;;;;;;5016785;28;20214;-91
2023/04/22 03:15:59;;;;;;;9.17;2.50;;;10.30;99.90;;;;;;5024287;28;20197;-90
2023/04/22 03:18:31;;;;;;;8.40;2.50;;;10.30;99.90;;;;;;5026243;28;20697;-91
2023/04/22 03:21:02;;;;;;;14.60;2.70;;;10.20;99.90;;;;;;5017017;28;20268;-93
2023/04/22 03:23:35;;;;;;;10.93;2.87;;;10.10;99.90;;;;;;5009675;28;20258;-91
2023/04/22 03:26:08;;;;;;;13.90;2.97;;;10.00;99.90;;;;;;5016309;28;20675;-92
2023/04/22 03:28:39;;;;;;;12.80;3.07;;;10.00;99.90;;;;;;5007830;28;20210;-94
2023/04/22 03:31:10;;;;;;;10.80;2.50;;;9.90;99.90;;;;;;5012837;28;20202;-93
2023/04/22 03:33:42;;;;;;;8.47;2.10;;;9.90;99.90;;;;;;5011283;28;20267;-92
2023/04/22 03:36:13;;;;;;;11.20;2.40;;;9.70;99.90;;;;;;5015447;28;20759;-93
2023/04/22 03:38:45;;;;;;;8.03;2.50;;;9.70;99.90;;;;;;5015964;28;20295;-92
2023/04/22 03:41:18;;;;;;;9.90;2.50;;;9.60;99.90;;;;;;5018049;28;20217;-92
2023/04/22 03:43:50;;;;;;;11.40;3.07;;;9.60;99.90;;;;;;5016499;28;20574;-91
2023/04/22 03:46:21;;;;;;;14.13;2.90;;;9.60;99.90;;;;;;5016368;28;20209;-90
2023/04/22 03:48:52;;;;;;;9.27;2.80;;;9.50;99.90;;;;;;5015359;28;20283;-91
2023/04/22 03:51:23;;;;;;;10.60;3.07;;;9.40;99.90;;;;;;5016315;28;20214;-90
2023/04/22 03:53:54;;;;;;;9.20;2.83;;;9.40;99.90;;;;;;5016293;28;20710;-90
2023/04/22 03:56:28;;;;;;;9.03;2.73;;;9.40;99.90;;;;;;5022208;28;20248;-91
2023/04/22 03:58:59;;;;;;;9.83;2.77;;;9.40;99.90;;;;;;5018437;28;20225;-91
2023/04/22 04:01:31;;;;;;;7.93;2.53;;;9.40;99.90;;;;;;5004831;28;20207;-91
2023/04/22 04:04:03;;;;;;;13.27;2.70;;;9.40;99.90;;;;;;5023096;28;20485;-90
2023/04/22 04:06:34;;;;;;;5.83;2.23;;;9.30;99.90;;;;;;5019028;28;20316;-91
2023/04/22 04:09:06;;;;;;;6.73;2.40;;;9.30;99.90;;;;;;5015420;28;20201;-90
2023/04/22 04:11:40;;;;;;;8.90;2.50;;;9.30;99.90;;;;;;4995648;28;20618;-91
2023/04/22 04:14:11;;;;;;;8.77;3.00;;;9.30;99.90;;;;;;4996545;28;20334;-90
2023/04/22 04:16:43;;;;;;;8.83;3.13;;;9.30;99.90;;;;;;4998047;28;20236;-91
2023/04/22 04:19:14;;;;;;;10.50;3.40;;;9.30;99.90;;;;;;4995785;28;20602;-91
2023/04/22 04:21:45;;;;;;;10.30;3.97;;;9.40;99.90;;;;;;4996868;28;20214;-91
2023/04/22 04:24:17;;;;;;;10.27;4.30;;;9.30;99.90;;;;;;5021970;28;20210;-91
2023/04/22 04:26:52;;;;;;;11.10;3.77;;;9.30;99.90;;;;;;5024145;28;20205;-91
2023/04/22 04:29:23;;;;;;;14.00;4.83;;;9.30;99.90;;;;;;5014227;28;20217;-91
2023/04/22 04:31:56;;;;;;;9.23;4.37;;;9.30;99.90;;;;;;5020680;28;20204;-91
2023/04/22 04:34:27;;;;;;;10.93;4.33;;;9.30;99.90;;;;;;5048970;28;20212;-91
2023/04/22 04:36:59;;;;;;;8.57;4.40;;;9.20;99.90;;;;;;5022079;28;20214;-91
2023/04/22 04:39:31;;;;;;;11.83;4.30;;;9.20;99.90;;;;;;5022097;28;20248;-90
2023/04/22 04:42:05;;;;;;;8.93;4.03;;;9.20;99.90;;;;;;5027775;28;20201;-90
2023/04/22 04:44:36;;;;;;;8.97;3.40;;;9.20;99.90;;;;;;5035225;28;20213;-92
2023/04/22 04:47:08;;;;;;;11.83;4.87;;;9.20;99.90;;;;;;5035087;28;20209;-92
2023/04/22 04:49:40;;;;;;;8.10;3.87;;;9.10;99.90;;;;;;5027687;28;20293;-91
2023/04/22 04:52:12;;;;;;;9.93;3.67;;;9.10;99.90;;;;;;5015049;28;20682;-91
2023/04/22 04:54:44;;;;;;;7.50;3.70;;;9.10;99.90;;;;;;5016585;28;20212;-90
2023/04/22 04:57:16;;;;;;;9.77;3.87;;;9.10;99.90;;;;;;5015607;28;20232;-90
2023/04/22 04:59:48;;;;;;;7.27;3.57;;;9.10;99.90;;;;;;5015863;28;20244;-90
2023/04/22 05:02:18;;;;;;;10.77;3.90;;;9.10;99.90;;;;;;5016840;28;20205;-90
2023/04/22 05:04:50;;;;;;;7.37;3.70;;;9.10;99.90;;;;;;5016465;28;20217;-90
2023/04/22 05:07:22;;;;;;;10.67;4.23;;;9.10;99.90;;;;;;5029430;28;20241;-90
2023/04/22 05:09:53;;;;;;;8.77;3.97;;;9.10;99.90;;;;;;5013946;28;20220;-91
2023/04/22 05:12:27;;;;;;;12.07;3.80;;;9.10;99.90;;;;;;5016235;28;20220;-89
2023/04/22 05:14:58;;;;;;;7.90;3.50;;;9.10;99.90;;;;;;4995159;28;20210;-90
2023/04/22 05:17:30;;;;;;;7.77;3.70;;;9.10;99.90;;;;;;5030309;28;20207;-93
2023/04/22 05:20:01;;;;;;;11.77;4.07;;;9.20;99.90;;;;;;5016523;28;20244;-91
2023/04/22 05:22:32;;;;;;;10.67;3.93;;;9.20;99.90;;;;;;5014931;28;20217;-92
2023/04/22 05:25:04;;;;;;;11.47;4.00;;;9.30;99.90;;;;;;5021832;28;20205;-91
2023/04/22 05:27:37;;;;;;;9.27;3.60;;;9.20;99.90;;;;;;5019371;28;20202;-91
2023/04/22 05:30:10;;;;;;;7.87;3.50;;;9.20;99.90;;;;;;5014374;28;20260;-91
2023/04/22 05:32:41;;;;;;;11.27;3.70;;;9.30;99.90;;;;;;5015784;28;20612;-91
2023/04/22 05:35:13;;;;;;;14.30;3.70;;;9.20;99.90;;;;;;5032076;28;20213;-91
2023/04/22 05:37:44;;;;;;;8.03;3.90;;;9.20;99.90;;;;;;5033338;28;20287;-92
2023/04/22 05:40:15;;;;;;;12.00;4.20;;;9.20;99.90;;;;;;5024684;28;20705;-91
2023/04/22 05:42:49;;;;;;;11.63;4.53;;;9.20;99.90;;;;;;5014249;28;20654;-91
2023/04/22 05:45:20;;;;;;;7.27;3.27;;;9.20;99.90;;;;;;5014105;28;20206;-91
2023/04/22 05:47:53;;;;;;;10.20;4.37;;;9.10;99.90;;;;;;5007596;28;20232;-91
2023/04/22 05:50:24;;;;;;;7.87;4.20;;;9.10;99.90;;;;;;5026212;28;20212;-91
2023/04/22 05:52:56;;;;;;;10.43;3.43;;;9.00;99.90;;;;;;5023209;28;20198;-91
2023/04/22 05:55:27;;;;;;;9.20;3.80;;;9.10;99.90;;;;;;5014149;28;20214;-91
2023/04/22 05:58:00;;;;;;;9.97;3.77;;;9.00;99.90;;;;;;5013331;28;20206;-89
2023/04/22 06:00:32;;;;;;;5.53;3.17;;;9.00;99.90;;;;;;4994556;28;20241;-90
2023/04/22 06:03:03;;;;;;;8.07;3.87;;;9.00;99.90;;;;;;4995265;28;20210;-90
2023/04/22 06:05:35;;;;;;;7.30;2.90;;;8.90;99.90;;;;;;5001481;28;20206;-90
2023/04/22 06:08:07;;;;;;;11.27;3.17;;;8.90;99.90;;;;;;5012990;28;20217;-91
2023/04/22 06:10:38;;;;;;;6.67;2.93;;;8.90;99.90;;;;;;5014137;28;20242;-90
2023/04/22 06:13:11;;;;;;;7.03;3.50;;;8.90;99.90;;;;;;5013458;28;20256;-89
2023/04/22 06:15:42;;;;;;;7.97;2.60;;;8.90;99.90;;;;;;5010300;28;20241;-89
2023/04/22 06:18:13;;;;;;;6.70;2.57;;;8.90;99.90;;;;;;5013621;28;20207;-90
2023/04/22 06:20:45;;;;;;;9.17;2.37;;;8.90;99.90;;;;;;5014232;28;20241;-91
2023/04/22 06:23:16;;;;;;;7.60;2.47;;;8.90;99.90;;;;;;5017849;28;20205;-90
2023/04/22 06:25:47;;;;;;;7.93;2.47;;;8.90;99.90;;;;;;5017458;28;20259;-90
2023/04/22 06:28:20;;;;;;;9.87;3.20;;;8.90;99.90;;;;;;5026333;28;20198;-91
2023/04/22 06:30:52;;;;;;;8.97;2.83;;;8.90;99.90;;;;;;5017739;28;20224;-91
2023/04/22 06:33:23;;;;;;;9.60;2.63;;;8.90;99.90;;;;;;5019857;28;20201;-91
2023/04/22 06:35:55;;;;;;;6.83;2.90;;;8.90;99.90;;;;;;5033272;28;20254;-91
2023/04/22 06:38:26;;;;;;;6.37;2.30;;;8.80;99.90;;;;;;5047363;28;20212;-91
2023/04/22 06:40:58;;;;;;;8.13;2.20;;;8.80;99.90;;;;;;5050296;28;20235;-91
2023/04/22 06:43:32;;;;;;;5.30;2.30;;;8.80;99.90;;;;;;5055153;28;20239;-92
2023/04/22 06:46:03;;;;;;;6.93;2.47;;;8.80;99.90;;;;;;5044749;28;20193;-90
2023/04/22 06:48:35;;;;;;;8.13;2.77;;;8.80;99.90;;;;;;5044618;28;20732;-91
2023/04/22 06:51:06;;;;;;;3.50;2.00;;;8.70;99.90;;;;;;5038078;28;20305;-90
2023/04/22 06:53:37;;;;;;;6.37;2.47;;;8.70;99.90;;;;;;5007347;28;20206;-92
2023/04/22 06:56:09;;;;;;;4.00;2.20;;;8.80;99.90;;;;;;5017484;28;20309;-90
2023/04/22 06:58:42;;;;;;;4.73;2.23;;;8.70;99.90;;;;;;5016919;28;20209;-91
2023/04/22 07:01:14;;;;;;;6.73;2.40;;;8.70;99.90;;;;;;5017700;28;20208;-90
2023/04/22 07:03:45;;;;;;;5.37;2.20;;;8.70;99.90;;;;;;5012111;28;20206;-90
2023/04/22 07:06:17;;;;;;;5.67;2.30;;;8.70;99.90;;;;;;4997828;28;20241;-90
2023/04/22 07:08:48;;;;;;;9.63;2.40;;;8.70;99.90;;;;;;4996974;28;20229;-90
2023/04/22 07:11:20;;;;;;;5.00;2.03;;;8.70;99.90;;;;;;5016071;28;20201;-89
2023/04/22 07:13:53;;;;;;;9.07;2.53;;;8.60;99.90;;;;;;5014542;28;20202;-90
2023/04/22 07:16:24;;;;;;;6.40;2.00;;;8.60;99.90;;;;;;5017555;28;20268;-89
2023/04/22 07:18:58;;;;;;;7.67;2.23;;;8.60;99.90;;;;;;5015705;28;20212;-90
2023/04/22 07:21:30;;;;;;;10.00;2.33;;;8.60;99.90;;;;;;4997344;28;20209;-89
2023/04/22 07:24:01;;;;;;;7.07;2.60;;;8.60;99.90;;;;;;4997732;28;20218;-90
2023/04/22 07:26:33;;;;;;;6.83;2.00;;;8.50;99.90;;;;;;4996946;28;20214;-88
2023/04/22 07:29:06;;;;;;;7.07;2.60;;;8.50;99.90;;;;;;4996335;28;20213;-90
2023/04/22 07:31:38;;;;;;;8.13;2.83;;;8.50;99.90;;;;;;5015858;28;20206;-91
2023/04/22 07:34:10;;;;;;;7.63;2.30;;;8.50;99.90;;;;;;5016260;28;20272;-91
2023/04/22 07:36:42;;;;;;;8.80;2.53;;;8.50;99.90;;;;;;4996578;28;20252;-91
2023/04/22 07:39:14;;;;;;;8.93;2.83;;;8.40;99.90;;;;;;4994517;28;20257;-91
2023/04/22 07:41:45;;;;;;;6.03;2.33;;;8.40;99.90;;;;;;5007340;28;20213;-91
2023/04/22 07:44:20;;;;;;;7.00;3.03;;;8.40;99.90;;;;;;5016320;28;20226;-90
2023/04/22 07:46:51;;;;;;;8.13;2.60;;;8.40;99.90;;;;;;5016491;28;20690;-90
2023/04/22 07:49:23;;;;;;;9.63;2.47;;;8.30;99.90;;;;;;5014130;28;20578;-90
2023/04/22 07:51:54;;;;;;;14.13;2.93;;;8.30;99.90;;;;;;5016109;28;20229;-91
2023/04/22 07:54:25;;;;;;;4.87;2.13;;;8.30;99.90;;;;;;5016155;28;20206;-91
2023/04/22 07:56:57;;;;;;;7.87;2.00;;;8.30;99.90;;;;;;5016098;28;20233;-91
2023/04/22 07:59:30;;;;;;;9.53;2.53;;;8.30;99.90;;;;;;5014587;28;20635;-91
2023/04/22 08:02:01;;;;;;;6.07;2.33;;;8.30;99.90;;;;;;5015831;28;20198;-91
2023/04/22 08:04:33;;;;;;;6.10;2.30;;;8.20;99.90;;;;;;5015912;28;20198;-91
2023/04/22 08:07:05;;;;;;;6.33;2.27;;;8.20;99.90;;;;;;5015864;28;20697;-90
2023/04/22 08:09:56;;;;;;;5.20;2.47;;;8.20;99.90;;;;;;5015398;28;20316;-90
2023/04/22 08:12:28;;;;;;;6.83;2.70;;;8.20;99.90;;;;;;5018512;28;20205;-89
2023/04/22 08:15:00;;;;;;;8.40;3.00;;;8.10;99.90;;;;;;5035752;28;20212;-90
2023/04/22 08:17:31;;;;;;;7.57;2.43;;;8.10;99.90;;;;;;5035178;28;20235;-88
2023/04/22 08:20:03;;;;;;;7.30;2.50;;;8.10;99.90;;;;;;5035377;28;20319;-89
2023/04/22 08:22:37;;;;;;;7.53;2.00;;;8.10;99.90;;;;;;5016369;28;20244;-90
2023/04/22 08:25:09;;;;;;;6.70;2.30;;;8.00;99.90;;;;;;5015161;28;20201;-90
2023/04/22 08:27:41;;;;;;;5.63;2.13;;;8.00;99.90;;;;;;5014295;28;20209;-91
2023/04/22 08:30:14;;;;;;;4.47;2.17;;;8.00;99.90;;;;;;5014953;28;20733;-89
2023/04/22 08:32:46;;;;;;;5.80;1.80;;;8.00;99.90;;;;;;5015577;28;20209;-90
2023/04/22 08:35:17;;;;;;;9.43;2.27;;;8.00;99.90;;;;;;5015186;28;20907;-89
2023/04/22 08:37:48;;;;;;;6.23;2.10;;;7.90;99.90;;;;;;5014599;28;20279;-91
2023/04/22 08:40:19;;;;;;;7.90;2.07;;;7.90;99.90;;;;;;5014989;28;20237;-91
2023/04/22 08:42:53;;;;;;;5.53;2.10;;;7.90;99.90;;;;;;5015580;28;20213;-92
2023/04/22 08:45:25;;;;;;;4.73;1.70;;;7.90;99.90;;;;;;5015138;28;20260;-91
2023/04/22 08:47:58;;;;;;;7.03;1.93;;;7.90;99.90;;;;;;5027143;28;20517;-91
2023/04/22 08:50:31;;;;;;;4.27;2.07;;;7.90;99.90;;;;;;5053771;28;20213;-91
2023/04/22 08:53:02;;;;;;;7.17;2.33;;;7.90;99.90;;;;;;5056220;28;20216;-91
2023/04/22 08:55:35;;;;;;;4.77;1.77;;;7.90;99.90;;;;;;5035768;28;20211;-91
2023/04/22 08:58:06;;;;;;;6.43;2.13;;;7.90;99.90;;;;;;5034216;28;20206;-90
2023/04/22 09:00:43;;;;;;;2.97;1.80;;;7.90;99.90;;;;;;5028574;28;20295;-91
2023/04/22 09:03:16;;;;;;;5.93;2.10;;;7.90;99.90;;;;;;5015728;28;20201;-91
2023/04/22 09:05:50;;;;;;;5.97;2.10;;;7.90;99.90;;;;;;5010658;28;20208;-91
2023/04/22 09:08:21;;;;;;;4.87;2.07;;;7.90;99.90;;;;;;5028070;28;20271;-90
2023/04/22 09:10:53;;;;;;;3.40;1.73;;;7.90;99.90;;;;;;5001069;28;20604;-89
2023/04/22 09:13:25;;;;;;;4.53;1.93;;;8.00;99.90;;;;;;4994307;28;20272;-90
2023/04/22 09:15:58;;;;;;;5.23;2.27;;;8.00;99.90;;;;;;5001409;28;20210;-90
2023/04/22 09:18:30;;;;;;;5.03;1.77;;;8.00;99.90;;;;;;5013267;28;20214;-91
2023/04/22 09:21:01;;;;;;;5.47;2.50;;;7.90;99.90;;;;;;5014579;28;20291;-90
2023/04/22 09:23:32;;;;;;;3.83;1.90;;;8.00;99.90;;;;;;5019934;28;20205;-90
2023/04/22 09:26:04;;;;;;;5.17;2.00;;;8.00;99.90;;;;;;5033833;28;20266;-89
2023/04/22 09:28:38;;;;;;;6.40;1.97;;;8.00;99.90;;;;;;5024998;28;21037;-90
2023/04/22 09:31:15;;;;;;;3.87;1.80;;;8.00;99.90;;;;;;5014847;28;20209;-90
2023/04/22 09:33:55;;;;;;;6.77;2.40;;;8.00;99.90;;;;;;5014247;28;20205;-90
2023/04/22 09:36:28;;;;;;;5.77;2.00;;;8.00;99.90;;;;;;5022815;28;20207;-89
2023/04/22 09:39:01;;;;;;;4.87;2.00;;;8.00;99.90;;;;;;5031736;28;20213;-90
2023/04/22 09:41:33;;;;;;;6.07;2.17;;;8.00;99.90;;;;;;5014728;28;20229;-91
2023/04/22 09:44:06;;;;;;;6.47;2.27;;;8.00;99.90;;;;;;5004484;28;20210;-90
2023/04/22 09:46:42;;;;;;;5.13;1.90;;;8.00;99.90;;;;;;5015409;28;20212;-92
2023/04/22 09:49:17;;;;;;;6.13;1.80;;;8.00;99.90;;;;;;5033560;28;20213;-91
2023/04/22 09:51:48;;;;;;;8.57;2.43;;;8.00;99.90;;;;;;5018101;28;20580;-91
2023/04/22 09:54:19;;;;;;;5.30;2.27;;;8.00;99.90;;;;;;5014071;28;20213;-90
2023/04/22 09:56:51;;;;;;;5.27;2.20;;;8.10;99.90;;;;;;5013543;28;20618;-90
2023/04/22 09:59:24;;;;;;;7.00;2.13;;;8.10;99.90;;;;;;5013234;28;20227;-91
2023/04/22 10:01:59;;;;;;;5.80;2.10;;;8.00;99.90;;;;;;5013568;28;20225;-90
2023/04/22 10:04:31;;;;;;;6.70;2.00;;;8.00;99.90;;;;;;5004895;28;20210;-91
2023/04/22 10:07:03;;;;;;;5.67;2.10;;;7.90;99.90;;;;;;4992936;28;20654;-91
2023/04/22 10:09:35;;;;;;;4.80;2.17;;;7.90;99.90;;;;;;5020171;28;20213;-92
2023/04/22 10:12:07;;;;;;;6.47;2.13;;;7.90;99.90;;;;;;5014609;28;20789;-92
2023/04/22 10:14:39;;;;;;;7.63;1.93;;;7.90;99.90;;;;;;5012241;28;20551;-92
2023/04/22 10:17:13;;;;;;;5.00;2.00;;;7.90;99.90;;;;;;5000902;28;20226;-90
2023/04/22 10:19:47;;;;;;;6.10;2.17;;;7.90;99.90;;;;;;5033498;28;20212;-90
2023/04/22 10:22:18;;;;;;;5.33;1.97;;;7.90;99.90;;;;;;5020812;28;20231;-90
2023/04/22 10:24:54;;;;;;;6.33;2.00;;;7.90;99.90;;;;;;5010150;28;20210;-90
2023/04/22 10:27:26;;;;;;;8.23;2.20;;;7.90;99.90;;;;;;4993942;28;20737;-91
2023/04/22 10:29:58;;;;;;;4.43;1.80;;;7.90;99.90;;;;;;5011269;28;20214;-91
2023/04/22 10:32:32;;;;;;;3.67;2.10;;;8.00;99.90;;;;;;5025701;28;20288;-90
2023/04/22 10:35:11;;;;;;;5.57;1.77;;;8.00;99.90;;;;;;5026575;28;20224;-91
2023/04/22 10:37:47;;;;;;;5.30;2.13;;;7.90;99.90;;;;;;5010843;28;20206;-92
2023/04/22 10:40:21;;;;;;;5.00;2.00;;;7.90;99.90;;;;;;5014176;28;20209;-89
2023/04/22 10:42:54;;;;;;;6.73;1.90;;;8.00;99.90;;;;;;5014498;28;20279;-91
2023/04/22 10:45:26;;;;;;;5.83;1.60;;;8.00;99.90;;;;;;5014272;28;20631;-90
2023/04/22 10:48:04;;;;;;;4.13;1.90;;;8.00;99.90;;;;;;4994359;28;20214;-92
2023/04/22 10:50:36;;;;;;;5.73;2.07;;;8.00;99.90;;;;;;4994674;28;20202;-92
2023/04/22 10:53:39;;;;;;;6.43;2.00;;;7.90;99.90;;;;;;5026863;28;20269;-91
2023/04/22 10:56:19;;;;;;;3.77;1.90;;;7.90;99.90;;;;;;5024360;28;20193;-91
2023/04/22 10:58:51;;;;;;;5.93;1.80;;;8.00;99.90;;;;;;5015594;28;20309;-90
2023/04/22 11:01:22;;;;;;;6.37;1.90;;;8.00;99.90;;;;;;5006142;28;20244;-90
2023/04/22 11:04:16;;;;;;;7.80;1.80;;;8.00;99.90;;;;;;5013902;28;20220;-90
2023/04/22 11:06:47;;;;;;;6.30;2.17;;;8.10;99.90;;;;;;5011025;28;20277;-92
2023/04/22 11:09:20;;;;;;;5.27;2.03;;;8.00;99.90;;;;;;5015234;28;20231;-92
2023/04/22 11:11:51;;;;;;;7.80;1.83;;;8.00;99.90;;;;;;5013251;28;20213;-93
2023/04/22 11:14:23;;;;;;;6.33;2.10;;;8.10;99.90;;;;;;5016372;28;20209;-91
2023/04/22 11:16:54;;;;;;;5.20;2.07;;;8.10;99.90;;;;;;5031295;28;20209;-92
2023/04/22 11:19:29;;;;;;;4.50;1.70;;;8.00;99.90;;;;;;4998211;28;20210;-91
2023/04/22 11:22:01;;;;;;;5.80;2.10;;;7.90;99.90;;;;;;5017908;28;20236;-90
2023/04/22 11:24:32;;;;;;;5.17;1.97;;;8.00;99.90;;;;;;5015011;28;20553;-90
2023/04/22 11:27:03;;;;;;;4.23;1.97;;;7.90;99.90;;;;;;5016992;28;20209;-90
2023/04/22 11:29:34;;;;;;;4.10;1.80;;;8.00;99.90;;;;;;5006818;28;20562;-90
2023/04/22 11:32:06;;;;;;;6.40;2.13;;;8.00;99.90;;;;;;4997266;28;20210;-89
2023/04/22 11:34:39;;;;;;;6.10;2.07;;;7.90;99.90;;;;;;5004393;28;20202;-89
2023/04/22 11:37:11;;;;;;;8.97;2.20;;;7.90;99.90;;;;;;5017759;28;20574;-90
2023/04/22 11:39:42;;;;;;;3.53;1.80;;;8.00;99.90;;;;;;5013360;28;20260;-90
2023/04/22 11:42:36;;;;;;;2.87;2.00;;;8.00;99.90;;;;;;5016127;28;20295;-90
2023/04/22 11:45:09;;;;;;;4.97;2.60;;;8.00;99.90;;;;;;5015063;28;20728;-91
2023/04/22 11:47:40;;;;;;;5.63;1.83;;;8.00;99.90;;;;;;5010420;28;20499;-90
2023/04/22 11:50:15;;;;;;;4.63;1.97;;;8.00;99.90;;;;;;5015269;28;20264;-89
2023/04/22 11:52:47;;;;;;;4.50;1.60;;;7.90;99.90;;;;;;5000546;28;20197;-91
2023/04/22 11:55:21;;;;;;;7.33;1.90;;;7.90;99.90;;;;;;5024573;28;20205;-90
2023/04/22 11:57:57;;;;;;;6.60;1.97;;;7.90;99.90;;;;;;5026885;28;20250;-90
2023/04/22 12:00:32;;;;;;;3.30;1.67;;;8.00;99.90;;;;;;4997804;28;20206;-91
2023/04/22 12:03:06;;;;;;;4.77;2.03;;;8.00;99.90;;;;;;4998603;28;20257;-90
2023/04/22 12:05:41;;;;;;;3.97;1.80;;;8.00;99.90;;;;;;4998447;28;20217;-90
2023/04/22 12:08:14;;;;;;;5.00;1.83;;;8.00;99.90;;;;;;5010249;28;20221;-92
2023/04/22 12:10:47;;;;;;;3.60;1.70;;;8.00;99.90;;;;;;5007788;28;20206;-91
2023/04/22 12:13:23;;;;;;;6.50;2.10;;;7.90;99.90;;;;;;5014779;28;20268;-90
2023/04/22 12:15:57;;;;;;;5.17;1.80;;;8.00;99.90;;;;;;5015789;28;20208;-90
2023/04/22 12:18:31;;;;;;;6.93;1.97;;;8.00;99.90;;;;;;5013948;28;20206;-90
2023/04/22 12:21:10;;;;;;;6.07;2.20;;;7.90;99.90;;;;;;5025401;28;20572;-91
2023/04/22 12:23:46;;;;;;;7.60;2.17;;;7.90;99.90;;;;;;5015532;28;20233;-91
2023/04/22 12:26:18;;;;;;;4.27;1.60;;;7.90;99.90;;;;;;5015332;28;20209;-91
2023/04/22 12:28:49;;;;;;;4.90;1.60;;;8.00;99.90;;;;;;4995466;28;20206;-90
2023/04/22 12:31:21;;;;;;;8.20;2.10;;;8.00;99.90;;;;;;5013073;28;20210;-90
2023/04/22 12:33:52;;;;;;;6.93;2.10;;;8.00;99.90;;;;;;5015233;28;20216;-90
2023/04/22 12:36:25;;;;;;;4.70;2.20;;;8.00;99.90;;;;;;5013408;28;20201;-90
2023/04/22 12:38:56;;;;;;;6.93;2.43;;;7.90;99.90;;;;;;5020507;28;20205;-89
2023/04/22 12:41:27;;;;;;;7.47;1.90;;;7.90;99.90;;;;;;5016430;28;20201;-90
2023/04/22 12:43:59;;;;;;;8.43;1.87;;;7.90;99.90;;;;;;5015581;28;20245;-91
2023/04/22 12:46:31;;;;;;;6.80;1.90;;;7.90;99.90;;;;;;5015819;28;20241;-90
2023/04/22 12:49:02;;;;;;;5.83;1.90;;;7.90;99.90;;;;;;5014377;28;20233;-90
2023/04/22 12:51:35;;;;;;;5.53;1.97;;;7.90;99.90;;;;;;5002166;28;20293;-90
2023/04/22 12:54:07;;;;;;;6.13;2.10;;;7.90;99.90;;;;;;4996091;28;20218;-90
2023/04/22 12:56:39;;;;;;;5.77;1.90;;;7.90;99.90;;;;;;5006147;28;20206;-90
2023/04/22 12:59:10;;;;;;;6.53;1.90;;;8.00;99.90;;;;;;5016778;28;20202;-90
2023/04/22 13:01:41;;;;;;;8.73;2.10;;;7.90;99.90;;;;;;5033425;28;20284;-89
2023/04/22 13:04:13;;;;;;;4.03;1.60;;;7.90;99.90;;;;;;5019459;28;20352;-90
2023/04/22 13:06:46;;;;;;;8.73;2.20;;;7.90;99.90;;;;;;5017300;28;20289;-91
2023/04/22 13:09:17;;;;;;;6.97;2.30;;;8.00;99.90;;;;;;5009914;28;20609;-91
2023/04/22 13:11:49;;;;;;;6.30;2.00;;;8.00;99.90;;;;;;5014312;28;20937;-91
2023/04/22 13:14:20;;;;;;;6.63;2.00;;;8.00;99.90;;;;;;5021505;28;20201;-90
2023/04/22 13:16:51;;;;;;;6.93;2.23;;;7.90;99.90;;;;;;5031537;28;20205;-91
2023/04/22 13:19:24;;;;;;;8.23;2.03;;;8.00;99.90;;;;;;5023725;28;20275;-90